Time;durP1;ratioP1;P1;durP2;ratioP2;P2;SDS_P1;SDS_P2;PMS_P1;PMS_P2;Temp;Humidity;BMP_temperature;BMP_pressure;BME280_temperature;BME280_humidity;BME280_pressure;Samples;Min_cycle;Max_cycle;Signal;HPM_P1;HPM_P2
2021/12/25 00:00:38;;;;;;;6.80;4.80;;;;;;;9.13;70.62;100439.44;5077991;28;20041;-62
2021/12/25 00:03:07;;;;;;;6.18;4.30;;;;;;;9.16;70.88;100448.91;5068121;28;20069;-62
2021/12/25 00:05:35;;;;;;;5.28;4.03;;;;;;;9.16;70.90;100450.78;5075453;28;20067;-62
2021/12/25 00:08:03;;;;;;;6.10;4.50;;;;;;;9.13;70.88;100444.81;5069552;28;20045;-62
2021/12/25 00:10:32;;;;;;;5.40;4.28;;;;;;;9.12;69.90;100443.16;5072233;28;20179;-62
2021/12/25 00:13:00;;;;;;;5.20;3.97;;;;;;;9.12;70.28;100437.81;5076012;28;20301;-62
2021/12/25 00:15:29;;;;;;;5.15;4.13;;;;;;;9.08;70.15;100433.13;5068572;28;20302;-62
2021/12/25 00:17:56;;;;;;;5.97;4.03;;;;;;;9.11;70.08;100440.72;5074247;28;20045;-62
2021/12/25 00:20:26;;;;;;;4.93;4.03;;;;;;;9.10;70.34;100437.22;5080018;28;20045;-62
2021/12/25 00:22:54;;;;;;;5.75;4.45;;;;;;;9.09;70.77;100440.13;5064066;28;20073;-61
2021/12/25 00:25:22;;;;;;;5.82;4.25;;;;;;;9.09;70.86;100443.63;5079536;28;20052;-62
2021/12/25 00:27:58;;;;;;;5.40;4.22;;;;;;;9.04;70.17;100434.59;5077748;28;20057;-61
2021/12/25 00:30:33;;;;;;;5.03;3.90;;;;;;;9.06;69.96;100427.16;5080609;28;20108;-61
2021/12/25 00:33:05;;;;;;;5.50;4.05;;;;;;;9.06;70.56;100427.16;5073051;28;20071;-61
2021/12/25 00:35:34;;;;;;;6.43;4.60;;;;;;;9.05;70.00;100430.88;5079787;28;20543;-61
2021/12/25 00:38:02;;;;;;;6.53;4.60;;;;;;;9.05;70.01;100428.19;5071151;28;20049;-61
2021/12/25 00:40:29;;;;;;;6.13;4.88;;;;;;;9.04;70.19;100427.38;5073965;28;20049;-61
2021/12/25 00:42:57;;;;;;;7.38;4.63;;;;;;;9.03;69.98;100430.28;5076126;28;20072;-62
2021/12/25 00:45:25;;;;;;;6.25;4.63;;;;;;;9.02;70.17;100429.47;5072029;28;20080;-61
2021/12/25 00:47:53;;;;;;;8.57;5.47;;;;;;;9.01;70.52;100430.50;5077096;28;20053;-62
2021/12/25 00:50:20;;;;;;;7.85;5.13;;;;;;;9.01;70.23;100435.88;5064272;28;20502;-61
2021/12/25 00:52:49;;;;;;;8.38;6.45;;;;;;;9.01;70.56;100430.50;5073248;28;20461;-61
2021/12/25 00:55:17;;;;;;;7.22;5.57;;;;;;;8.98;70.49;100428.25;5081373;28;20087;-61
2021/12/25 00:57:45;;;;;;;7.05;5.10;;;;;;;8.97;70.59;100429.31;5071644;28;20088;-62
2021/12/25 01:00:14;;;;;;;7.18;5.60;;;;;;;8.96;70.49;100427.66;5081363;28;20075;-61
2021/12/25 01:02:43;;;;;;;7.35;5.22;;;;;;;8.96;70.49;100430.34;5081071;28;20521;-62
2021/12/25 01:05:12;;;;;;;13.10;5.38;;;;;;;8.97;70.42;100428.50;5076553;28;20135;-62
2021/12/25 01:07:40;;;;;;;7.32;5.80;;;;;;;8.93;69.75;100428.09;5060133;28;20057;-62
2021/12/25 01:10:14;;;;;;;8.05;6.20;;;;;;;8.93;70.16;100427.28;5061540;28;20069;-61
2021/12/25 01:12:54;;;;;;;7.75;5.88;;;;;;;8.92;70.16;100422.97;5073191;28;20083;-62
2021/12/25 01:15:29;;;;;;;6.90;5.70;;;;;;;8.91;70.37;100421.34;5068935;28;20121;-62
2021/12/25 01:18:23;;;;;;;8.60;6.00;;;;;;;8.89;70.49;100413.50;5077472;28;20049;-61
2021/12/25 01:21:19;;;;;;;8.48;6.50;;;;;;;8.91;70.41;100413.28;5054642;28;20052;-62
2021/12/25 01:27:01;;;;;;;9.80;7.00;;;;;;;8.91;70.16;100416.78;5028577;28;20129;-62
2021/12/25 01:29:35;;;;;;;9.27;7.13;;;;;;;8.90;69.86;100425.88;5019842;28;20053;-61
2021/12/25 01:37:40;;;;;;;10.07;8.05;;;;;;;8.88;70.26;100425.28;5019749;28;20101;-62
2021/12/25 01:40:30;;;;;;;10.82;8.25;;;;;;;8.88;70.24;100421.78;5018068;28;20528;-62
2021/12/25 01:48:30;;;;;;;15.15;10.90;;;;;;;8.83;69.87;100419.75;5021379;28;20049;-61
2021/12/25 01:50:58;;;;;;;14.10;10.45;;;;;;;8.85;69.55;100419.53;5032747;28;20069;-62
2021/12/25 01:53:25;;;;;;;16.30;12.18;;;;;;;8.83;70.16;100427.78;5019900;28;20528;-61
2021/12/25 01:55:54;;;;;;;15.55;11.88;;;;;;;8.82;69.90;100426.16;5019443;28;20109;-61
2021/12/25 01:58:24;;;;;;;16.42;12.48;;;;;;;8.81;70.59;100425.34;5020077;28;20124;-61
2021/12/25 02:00:55;;;;;;;15.02;11.13;;;;;;;8.74;69.20;100408.50;5019228;28;20070;-62
2021/12/25 02:03:25;;;;;;;17.80;12.88;;;;;;;8.81;69.82;100422.66;5056144;28;20127;-61
2021/12/25 02:05:54;;;;;;;16.02;11.38;;;;;;;8.82;69.41;100415.44;5065014;28;20064;-62
2021/12/25 02:08:23;;;;;;;14.90;11.10;;;;;;;8.81;69.68;100408.44;5057616;28;20056;-61
2021/12/25 02:10:51;;;;;;;14.50;11.25;;;;;;;8.81;70.12;100416.47;5073992;28;20071;-61
2021/12/25 02:13:20;;;;;;;15.88;11.57;;;;;;;8.80;69.47;100412.16;5078023;28;20378;-62
2021/12/25 02:15:51;;;;;;;15.40;12.07;;;;;;;8.80;69.82;100417.53;5076147;28;20064;-61
2021/12/25 02:18:25;;;;;;;15.57;11.73;;;;;;;8.80;70.03;100412.97;5072359;28;20063;-61
2021/12/25 02:21:01;;;;;;;15.48;11.48;;;;;;;8.79;69.72;100411.34;5056328;28;20037;-61
2021/12/25 02:23:32;;;;;;;15.63;11.60;;;;;;;8.80;70.00;100414.84;5076973;28;20051;-61
2021/12/25 02:26:01;;;;;;;16.30;11.63;;;;;;;8.77;69.88;100409.91;5072956;28;20095;-61
2021/12/25 02:28:29;;;;;;;18.38;13.40;;;;;;;8.75;69.60;100412.81;5082349;28;20106;-61
2021/12/25 02:31:00;;;;;;;16.00;12.38;;;;;;;8.75;69.55;100409.31;5072629;28;20056;-61
2021/12/25 02:33:30;;;;;;;16.45;12.48;;;;;;;8.74;69.89;100410.38;5066256;28;20060;-61
2021/12/25 02:35:59;;;;;;;17.65;13.88;;;;;;;8.73;69.94;100411.41;5069666;28;20390;-61
2021/12/25 02:38:28;;;;;;;18.50;14.43;;;;;;;8.72;69.63;100413.25;5064675;28;20052;-61
2021/12/25 02:40:56;;;;;;;17.67;14.40;;;;;;;8.71;69.41;100413.47;5063221;28;20118;-62
2021/12/25 02:43:24;;;;;;;19.13;14.48;;;;;;;8.71;70.45;100413.47;5069021;28;20040;-61
2021/12/25 02:45:54;;;;;;;21.88;15.93;;;;;;;8.71;69.42;100416.16;5071477;28;20041;-62
2021/12/25 02:48:22;;;;;;;21.60;16.08;;;;;;;8.69;70.11;100418.25;5071551;28;20044;-61
2021/12/25 02:50:50;;;;;;;18.40;14.52;;;;;;;8.68;69.88;100412.06;5078637;28;20475;-62
2021/12/25 02:53:19;;;;;;;20.50;16.05;;;;;;;8.68;69.52;100417.41;5075820;28;20045;-62
2021/12/25 02:55:47;;;;;;;20.90;15.95;;;;;;;8.67;70.32;100423.00;5070444;28;20072;-61
2021/12/25 02:58:19;;;;;;;20.52;15.82;;;;;;;8.65;69.99;100417.06;5074125;28;20079;-62
2021/12/25 03:00:49;;;;;;;23.33;16.42;;;;;;;8.63;69.75;100422.66;5070872;28;20071;-62
2021/12/25 03:03:18;;;;;;;23.02;16.70;;;;;;;8.61;68.98;100430.09;5069223;28;20083;-61
2021/12/25 03:05:46;;;;;;;21.90;16.35;;;;;;;8.59;69.41;100417.94;5078935;28;20052;-62
2021/12/25 03:08:15;;;;;;;24.48;17.02;;;;;;;8.58;70.15;100424.34;5075968;28;20095;-62
2021/12/25 03:10:45;;;;;;;21.05;15.75;;;;;;;8.55;69.43;100422.91;5076294;28;20068;-62
2021/12/25 03:13:30;;;;;;;22.70;16.75;;;;;;;8.56;69.30;100424.56;5071014;28;20048;-62
2021/12/25 03:15:58;;;;;;;23.13;16.88;;;;;;;8.57;69.43;100420.84;5074671;28;20076;-61
2021/12/25 03:18:28;;;;;;;23.98;17.30;;;;;;;8.57;69.48;100428.88;5084911;28;20055;-62
2021/12/25 03:21:00;;;;;;;22.38;16.60;;;;;;;8.57;69.33;100428.88;5077541;28;20259;-61
2021/12/25 03:23:29;;;;;;;20.27;15.55;;;;;;;8.56;70.15;100429.91;5080111;28;20049;-62
2021/12/25 03:26:00;;;;;;;22.38;17.02;;;;;;;8.55;69.96;100439.00;5070774;28;20486;-62
2021/12/25 03:28:30;;;;;;;18.70;14.68;;;;;;;8.52;69.03;100444.78;5072343;28;20509;-61
2021/12/25 03:31:01;;;;;;;20.42;15.13;;;;;;;8.50;68.21;100452.22;5077089;28;20100;-62
2021/12/25 03:33:29;;;;;;;19.42;14.45;;;;;;;8.43;68.74;100451.44;5077957;28;20049;-61
2021/12/25 03:35:57;;;;;;;18.33;13.38;;;;;;;8.40;67.77;100449.19;5060835;28;20069;-61
2021/12/25 03:38:27;;;;;;;19.15;13.95;;;;;;;8.39;68.46;100452.91;5070621;28;20091;-61
2021/12/25 03:40:55;;;;;;;19.08;13.43;;;;;;;8.38;68.76;100454.78;5077361;28;20048;-61
2021/12/25 03:43:24;;;;;;;20.52;13.60;;;;;;;8.30;68.57;100446.97;5070657;28;20076;-62
2021/12/25 03:45:52;;;;;;;19.73;13.75;;;;;;;8.40;68.97;100465.28;5072535;28;20157;-62
2021/12/25 03:48:43;;;;;;;19.80;14.07;;;;;;;8.38;68.37;100464.66;5071232;28;20053;-62
2021/12/25 03:59:32;;;;;;;21.80;15.25;;;;;;;8.40;68.63;100468.75;4995151;28;20068;-61
2021/12/25 04:02:11;;;;;;;22.25;14.45;;;;;;;8.40;69.05;100465.28;5015524;28;20077;-61
2021/12/25 04:04:44;;;;;;;19.83;13.85;;;;;;;8.39;68.88;100464.44;5014595;28;20121;-61
2021/12/25 04:07:22;;;;;;;20.77;14.27;;;;;;;8.39;67.99;100464.44;5010527;28;20046;-62
2021/12/25 04:09:50;;;;;;;20.40;13.38;;;;;;;8.36;68.55;100472.91;5015519;28;20077;-61
2021/12/25 04:12:17;;;;;;;19.45;14.85;;;;;;;8.37;68.72;100471.06;5003162;28;20126;-61
2021/12/25 04:14:49;;;;;;;18.52;13.40;;;;;;;8.35;68.41;100471.28;5018004;28;20073;-61
2021/12/25 04:17:17;;;;;;;17.63;12.15;;;;;;;8.35;68.39;100476.63;5016033;28;20054;-61
2021/12/25 04:19:45;;;;;;;18.08;13.73;;;;;;;8.34;68.11;100484.88;5014447;28;20136;-61
2021/12/25 04:22:18;;;;;;;14.90;11.70;;;;;;;8.32;68.03;100476.22;5016407;28;20085;-62
2021/12/25 04:24:47;;;;;;;15.73;11.60;;;;;;;8.31;68.05;100485.28;5014548;28;20077;-61
2021/12/25 04:27:16;;;;;;;14.07;10.88;;;;;;;8.29;67.83;100474.78;5005818;28;20057;-61
2021/12/25 04:29:49;;;;;;;13.48;10.07;;;;;;;8.29;67.36;100476.63;5011914;28;20076;-61
2021/12/25 04:49:40;;;;;;;13.13;9.40;;;;;;;8.21;67.32;100509.03;5060696;28;20135;-61
2021/12/25 05:03:09;;;;;;;10.85;8.77;;;;;;;8.10;67.33;100519.38;5076216;28;20044;-61
2021/12/25 05:05:39;;;;;;;11.23;8.23;;;;;;;8.09;67.38;100523.06;5075924;28;20135;-62
2021/12/25 05:08:07;;;;;;;10.50;8.40;;;;;;;8.09;67.36;100527.63;5070233;28;20075;-61
2021/12/25 05:10:35;;;;;;;10.55;8.77;;;;;;;8.09;67.11;100522.25;5080668;28;20036;-61
2021/12/25 05:13:03;;;;;;;9.70;7.85;;;;;;;8.06;66.92;100536.88;5069804;28;20056;-62
2021/12/25 05:15:32;;;;;;;10.05;8.25;;;;;;;8.03;67.16;100531.13;5065912;28;20060;-62
2021/12/25 05:18:01;;;;;;;8.75;7.25;;;;;;;7.98;66.50;100530.94;5066240;28;20049;-61
2021/12/25 05:20:28;;;;;;;8.82;7.43;;;;;;;7.95;65.49;100534.06;5073698;28;20068;-61
2021/12/25 05:22:57;;;;;;;9.40;7.75;;;;;;;7.91;65.29;100536.34;5066102;28;20068;-61
2021/12/25 05:25:25;;;;;;;9.13;7.03;;;;;;;7.91;65.50;100536.34;5067686;28;20053;-61
2021/12/25 05:27:53;;;;;;;8.82;7.32;;;;;;;7.89;65.94;100535.72;5064597;28;20557;-61
2021/12/25 05:30:21;;;;;;;10.02;8.55;;;;;;;7.85;64.91;100537.19;5069362;28;20041;-61
2021/12/25 05:32:48;;;;;;;8.30;7.40;;;;;;;7.82;64.56;100540.28;5067244;28;20088;-62
2021/12/25 05:35:16;;;;;;;10.45;7.38;;;;;;;7.81;65.66;100547.47;5076543;28;20080;-61
2021/12/25 05:37:44;;;;;;;8.05;6.85;;;;;;;7.78;64.92;100549.75;5067245;28;20056;-61
2021/12/25 05:40:14;;;;;;;9.23;7.45;;;;;;;7.75;64.49;100548.31;5068387;28;20056;-61
2021/12/25 05:42:42;;;;;;;9.10;7.25;;;;;;;7.76;65.38;100549.16;5068391;28;20073;-61
2021/12/25 05:45:10;;;;;;;8.15;6.75;;;;;;;7.75;65.65;100550.19;5068278;28;20044;-61
2021/12/25 05:47:38;;;;;;;8.98;7.05;;;;;;;7.74;64.44;100553.88;5073228;28;20064;-61
2021/12/25 05:50:06;;;;;;;8.90;6.88;;;;;;;7.73;65.25;100554.91;5069672;28;20054;-61
2021/12/25 05:52:34;;;;;;;8.77;7.50;;;;;;;7.74;65.89;100561.91;5056551;28;20049;-62
2021/12/25 05:55:02;;;;;;;9.38;7.68;;;;;;;7.70;64.84;100568.72;5062290;28;20061;-61
2021/12/25 05:57:31;;;;;;;9.80;7.85;;;;;;;7.67;65.08;100563.78;5071467;28;20059;-61
2021/12/25 05:59:58;;;;;;;10.32;7.65;;;;;;;7.62;63.90;100568.94;5068569;28;20044;-61
2021/12/25 06:02:26;;;;;;;9.23;7.55;;;;;;;7.61;64.37;100576.13;5080861;28;20083;-61
2021/12/25 06:04:54;;;;;;;8.85;6.82;;;;;;;7.67;64.22;100574.47;5068881;28;20377;-61
2021/12/25 06:07:22;;;;;;;11.15;7.63;;;;;;;7.78;63.09;100574.66;5064434;28;20053;-61
2021/12/25 06:09:50;;;;;;;9.27;7.45;;;;;;;7.89;62.47;100581.22;5070497;28;20371;-61
2021/12/25 06:12:18;;;;;;;8.68;7.00;;;;;;;8.05;62.40;100583.41;5070638;28;20083;-61
2021/12/25 06:14:48;;;;;;;9.07;7.55;;;;;;;8.21;62.28;100579.44;5069881;28;20084;-61
2021/12/25 06:17:17;;;;;;;9.32;7.57;;;;;;;8.31;61.54;100582.47;5065826;28;20442;-62
2021/12/25 06:19:44;;;;;;;10.02;7.05;;;;;;;8.40;60.91;100583.09;5062265;28;20121;-62
2021/12/25 06:22:12;;;;;;;8.75;7.00;;;;;;;8.52;60.84;100585.91;4369635;28;10000803;-62
2021/12/25 06:24:43;;;;;;;8.50;6.30;;;;;;;8.64;60.02;100587.69;5063711;28;20151;-62
2021/12/25 06:27:11;;;;;;;7.75;6.40;;;;;;;8.71;60.04;100595.66;5068510;28;20080;-62
2021/12/25 06:29:39;;;;;;;8.70;7.43;;;;;;;8.69;59.97;100595.06;5069071;28;20329;-62
2021/12/25 06:32:08;;;;;;;8.13;7.25;;;;;;;8.60;59.84;100585.66;5062302;28;20073;-62
2021/12/25 06:34:36;;;;;;;9.73;6.80;;;;;;;8.49;60.02;100597.88;5067047;28;20064;-62
2021/12/25 06:37:04;;;;;;;8.40;6.38;;;;;;;8.34;60.27;100605.38;5068913;28;20086;-62
2021/12/25 06:39:32;;;;;;;8.73;7.72;;;;;;;8.21;61.16;100605.38;5062996;28;20116;-62
2021/12/25 06:42:00;;;;;;;9.25;7.32;;;;;;;8.09;60.93;100606.06;5067138;28;20131;-62
2021/12/25 06:44:27;;;;;;;7.97;6.68;;;;;;;8.01;61.52;100600.09;5074865;28;20072;-62
2021/12/25 06:46:56;;;;;;;9.30;7.18;;;;;;;7.96;61.07;100602.59;5063689;28;20083;-62
2021/12/25 06:49:26;;;;;;;8.30;6.75;;;;;;;7.91;61.82;100611.25;5076010;28;20435;-62
2021/12/25 06:51:54;;;;;;;7.75;6.78;;;;;;;7.84;61.50;100607.78;5066736;28;20075;-62
2021/12/25 06:54:21;;;;;;;8.27;6.75;;;;;;;7.78;61.62;100608.59;5082065;28;20048;-61
2021/12/25 06:56:49;;;;;;;9.32;7.20;;;;;;;7.70;61.56;100620.34;5072098;28;20088;-61
2021/12/25 06:59:18;;;;;;;7.80;6.15;;;;;;;7.65;62.27;100613.97;5066063;28;20348;-62
2021/12/25 07:01:46;;;;;;;8.00;6.82;;;;;;;7.61;61.35;100615.44;5077098;28;20073;-62
2021/12/25 07:04:14;;;;;;;8.48;6.97;;;;;;;7.58;62.27;100629.22;5070410;28;20057;-69
2021/12/25 07:06:43;;;;;;;7.53;6.40;;;;;;;7.54;62.02;100626.13;5054913;28;20132;-62
2021/12/25 07:09:11;;;;;;;9.85;6.18;;;;;;;7.53;62.44;100626.34;5055958;28;20083;-63
2021/12/25 07:11:39;;;;;;;8.15;6.88;;;;;;;7.50;62.09;100638.28;5074678;28;20056;-61
2021/12/25 07:14:09;;;;;;;8.50;6.47;;;;;;;7.44;62.43;100636.44;5066629;28;20045;-60
2021/12/25 07:16:38;;;;;;;8.20;6.70;;;;;;;7.41;62.41;100640.34;5076051;28;20052;-61
2021/12/25 07:19:05;;;;;;;8.55;6.78;;;;;;;7.39;62.97;100645.06;5075619;28;20055;-62
2021/12/25 07:21:33;;;;;;;8.73;6.93;;;;;;;7.36;62.70;100637.44;5064548;28;20426;-61
2021/12/25 07:24:03;;;;;;;8.15;6.30;;;;;;;7.31;62.52;100644.44;5072465;28;20052;-62
2021/12/25 07:26:31;;;;;;;9.05;6.40;;;;;;;7.25;63.04;100642.59;5072773;28;20053;-62
2021/12/25 07:28:59;;;;;;;7.15;5.88;;;;;;;7.27;62.71;100641.38;5063004;28;20084;-62
2021/12/25 07:31:26;;;;;;;6.38;5.38;;;;;;;7.25;62.64;100648.75;5069183;28;20164;-62
2021/12/25 07:33:54;;;;;;;6.15;5.47;;;;;;;7.22;62.29;100651.03;5065173;28;20091;-61
2021/12/25 07:36:23;;;;;;;6.85;5.65;;;;;;;7.18;62.36;100646.09;5069090;28;20049;-62
2021/12/25 07:38:52;;;;;;;8.23;5.40;;;;;;;7.15;61.79;100653.69;5075783;28;20171;-63
2021/12/25 07:41:22;;;;;;;6.80;5.45;;;;;;;7.11;61.44;100657.78;5064500;28;20049;-61
2021/12/25 07:43:49;;;;;;;6.65;5.50;;;;;;;7.11;62.71;100657.78;5061141;28;20127;-64
2021/12/25 07:46:17;;;;;;;7.57;5.47;;;;;;;7.12;62.86;100657.59;5058292;28;20052;-62
2021/12/25 07:48:46;;;;;;;8.02;5.22;;;;;;;7.11;62.89;100668.47;5062800;28;20053;-60
2021/12/25 07:51:14;;;;;;;8.63;5.18;;;;;;;7.10;62.61;100656.97;5060311;28;20117;-66
2021/12/25 07:53:43;;;;;;;8.77;4.97;;;;;;;7.10;62.34;100669.50;5061370;28;20072;-64
2021/12/25 07:56:11;;;;;;;6.75;5.00;;;;;;;7.06;62.42;100660.25;5075620;28;20044;-66
2021/12/25 07:58:42;;;;;;;6.05;5.10;;;;;;;7.06;62.40;100662.94;5065344;28;20076;-65
2021/12/25 08:01:10;;;;;;;7.93;5.05;;;;;;;7.02;61.83;100659.00;5066929;28;20102;-66
2021/12/25 08:03:38;;;;;;;5.22;4.53;;;;;;;7.03;62.65;100661.47;5060203;28;20076;-67
2021/12/25 08:06:06;;;;;;;6.07;4.72;;;;;;;7.00;62.64;100672.56;5067509;28;20049;-64
2021/12/25 08:08:34;;;;;;;7.28;4.38;;;;;;;7.00;62.27;100671.75;5058167;28;20077;-67
2021/12/25 08:11:02;;;;;;;6.13;4.97;;;;;;;6.95;62.08;100675.03;5071526;28;20049;-67
2021/12/25 08:13:29;;;;;;;8.63;5.10;;;;;;;6.90;61.95;100682.03;5070764;28;20076;-67
2021/12/25 08:15:58;;;;;;;9.07;5.07;;;;;;;6.87;61.23;100682.44;5072125;28;20425;-67
2021/12/25 08:18:26;;;;;;;6.45;4.47;;;;;;;6.92;62.04;100691.50;5068309;28;20056;-67
2021/12/25 08:20:54;;;;;;;6.43;4.70;;;;;;;7.04;61.38;100691.69;5071076;28;20052;-66
2021/12/25 08:23:22;;;;;;;5.30;4.35;;;;;;;7.21;61.13;100697.47;5072439;28;20088;-68
2021/12/25 08:25:49;;;;;;;6.00;4.43;;;;;;;7.25;61.02;100696.88;5063206;28;20076;-64
2021/12/25 08:28:18;;;;;;;7.10;4.50;;;;;;;7.41;60.45;100704.50;5062868;28;20160;-67
2021/12/25 08:30:45;;;;;;;5.75;4.22;;;;;;;7.57;59.05;100700.59;5071692;28;20071;-67
2021/12/25 08:33:15;;;;;;;7.50;4.35;;;;;;;7.70;59.44;100700.59;5063540;28;20068;-67
2021/12/25 08:35:42;;;;;;;5.70;4.15;;;;;;;7.79;58.69;100687.84;5064934;28;20076;-67
2021/12/25 08:38:11;;;;;;;7.03;4.30;;;;;;;8.03;58.06;100713.13;5062447;28;20518;-70
2021/12/25 08:40:39;;;;;;;7.35;4.07;;;;;;;8.16;57.70;100703.22;5063566;28;20052;-70
2021/12/25 08:43:07;;;;;;;6.60;4.35;;;;;;;8.28;57.75;100714.09;5061404;28;20125;-67
2021/12/25 08:45:46;;;;;;;5.68;4.30;;;;;;;8.34;57.60;100712.47;5066768;28;20086;-67
2021/12/25 08:48:18;;;;;;;5.28;3.85;;;;;;;8.38;57.84;100708.34;5061515;28;20045;-67
2021/12/25 08:50:49;;;;;;;11.70;4.40;;;;;;;8.27;57.76;100714.31;5060217;28;20073;-68
2021/12/25 08:53:17;;;;;;;4.97;3.80;;;;;;;8.14;57.61;100720.50;5062367;28;20094;-68
2021/12/25 08:55:46;;;;;;;7.30;3.85;;;;;;;7.98;58.85;100721.78;5066285;28;20068;-72
2021/12/25 08:58:14;;;;;;;5.28;3.58;;;;;;;7.83;58.78;100727.34;5076274;28;20045;-70
2021/12/25 09:00:42;;;;;;;5.57;3.10;;;;;;;7.71;58.82;100728.16;5066962;28;20499;-66
2021/12/25 09:03:10;;;;;;;7.47;3.60;;;;;;;7.63;59.79;100739.06;5066197;28;20056;-70
2021/12/25 09:05:40;;;;;;;5.63;3.92;;;;;;;7.55;60.30;100734.75;5064293;28;20132;-64
2021/12/25 09:08:07;;;;;;;5.63;3.83;;;;;;;7.51;59.84;100733.50;5069258;28;20048;-66
2021/12/25 09:10:35;;;;;;;4.32;3.38;;;;;;;7.42;59.89;100735.56;5070380;28;20048;-69
2021/12/25 09:13:04;;;;;;;5.25;3.55;;;;;;;7.38;60.15;100745.00;5064007;28;20080;-66
2021/12/25 09:15:31;;;;;;;5.93;4.10;;;;;;;7.32;59.20;100739.66;5063371;28;20092;-67
2021/12/25 09:17:59;;;;;;;5.63;4.05;;;;;;;7.25;59.50;100736.97;5062373;28;20160;-68
2021/12/25 09:20:27;;;;;;;6.32;3.65;;;;;;;7.21;59.73;100740.25;5076157;28;20053;-67
2021/12/25 09:22:57;;;;;;;4.85;3.58;;;;;;;7.18;61.09;100736.94;5064337;28;20350;-69
2021/12/25 09:25:25;;;;;;;6.03;3.85;;;;;;;7.11;60.08;100745.97;5062096;28;20391;-67
2021/12/25 09:27:53;;;;;;;8.13;3.45;;;;;;;7.07;60.34;100739.38;5066296;28;20079;-65
2021/12/25 09:30:21;;;;;;;5.18;3.45;;;;;;;7.03;60.09;100744.31;5073964;28;20099;-70
2021/12/25 09:32:49;;;;;;;5.57;3.67;;;;;;;7.05;60.95;100750.28;5063068;28;20100;-73
2021/12/25 09:35:17;;;;;;;5.82;4.35;;;;;;;7.02;60.57;100750.69;5074176;28;20092;-65
2021/12/25 09:37:45;;;;;;;5.97;3.60;;;;;;;6.94;60.37;100737.50;5066181;28;20056;-70
2021/12/25 09:40:14;;;;;;;5.07;3.47;;;;;;;6.91;60.92;100743.28;5073689;28;20060;-69
2021/12/25 09:42:44;;;;;;;5.18;3.72;;;;;;;6.92;60.55;100744.91;5078977;28;20486;-69
2021/12/25 09:45:14;;;;;;;4.85;3.88;;;;;;;6.91;60.47;100750.47;5071140;28;20064;-69
2021/12/25 09:47:43;;;;;;;4.15;3.30;;;;;;;6.83;60.38;100751.47;5069403;28;20183;-69
2021/12/25 09:50:11;;;;;;;4.72;3.45;;;;;;;6.87;60.49;100767.91;5069205;28;20422;-68
2021/12/25 09:52:39;;;;;;;6.45;4.43;;;;;;;6.83;60.25;100768.31;5081273;28;20083;-68
2021/12/25 09:55:08;;;;;;;6.97;3.38;;;;;;;6.83;60.48;100772.84;5066032;28;20098;-68
2021/12/25 09:57:39;;;;;;;5.30;4.15;;;;;;;6.81;60.66;100782.91;5071226;28;20095;-69
2021/12/25 10:00:11;;;;;;;5.85;4.05;;;;;;;6.81;60.57;100781.03;5052650;28;20052;-68
2021/12/25 10:02:44;;;;;;;4.47;3.28;;;;;;;6.80;60.79;100786.59;5060043;28;20084;-68
2021/12/25 10:05:12;;;;;;;5.63;3.70;;;;;;;6.79;60.34;100791.09;5062239;28;20048;-68
2021/12/25 10:07:41;;;;;;;6.65;3.35;;;;;;;6.79;60.65;100792.94;5063869;28;20049;-68
2021/12/25 10:10:13;;;;;;;5.68;3.72;;;;;;;6.78;60.73;100793.97;5073619;28;20073;-68
2021/12/25 10:12:45;;;;;;;4.53;3.53;;;;;;;6.69;59.89;100801.31;5061069;28;20052;-67
2021/12/25 10:15:17;;;;;;;4.75;3.65;;;;;;;6.68;60.70;100790.84;5073175;28;20045;-68
2021/12/25 10:17:47;;;;;;;4.78;3.83;;;;;;;6.71;60.79;100796.63;5073954;28;20052;-66
2021/12/25 10:20:18;;;;;;;6.07;3.60;;;;;;;6.68;60.62;100793.50;5067972;28;20051;-66
2021/12/25 10:23:00;;;;;;;6.18;4.03;;;;;;;6.68;60.18;100801.53;5077926;28;20365;-67
2021/12/25 10:25:32;;;;;;;5.35;4.15;;;;;;;6.67;60.73;100797.19;5073784;28;20049;-66
2021/12/25 10:28:06;;;;;;;5.03;3.65;;;;;;;6.66;60.62;100791.03;5077383;28;20048;-68
2021/12/25 10:30:48;;;;;;;4.90;3.47;;;;;;;6.70;60.87;100799.47;5071015;28;20048;-66
2021/12/25 10:33:25;;;;;;;4.70;3.60;;;;;;;6.65;60.06;100792.06;5070808;28;20055;-66
2021/12/25 10:35:54;;;;;;;4.70;3.35;;;;;;;6.67;60.78;100789.19;5066098;28;20133;-65
2021/12/25 10:38:24;;;;;;;6.00;3.55;;;;;;;6.64;60.09;100789.59;5081017;28;20056;-66
2021/12/25 10:41:10;;;;;;;4.97;3.80;;;;;;;6.66;60.28;100793.72;5084887;28;20048;-66
2021/12/25 10:43:42;;;;;;;6.10;4.07;;;;;;;6.63;60.15;100783.44;5067810;28;20071;-66
2021/12/25 10:46:10;;;;;;;5.53;3.67;;;;;;;6.68;60.05;100786.31;5074411;28;20072;-66
2021/12/25 10:48:38;;;;;;;4.90;3.00;;;;;;;6.72;60.59;100781.41;5067868;28;20048;-67
2021/12/25 10:51:06;;;;;;;6.85;4.22;;;;;;;6.70;59.81;100770.09;5070468;28;20109;-66
2021/12/25 10:53:40;;;;;;;5.82;3.95;;;;;;;6.70;60.08;100772.78;5075524;28;20073;-66
2021/12/25 10:56:10;;;;;;;5.68;3.67;;;;;;;6.65;60.15;100768.03;5071597;28;20421;-66
2021/12/25 10:58:40;;;;;;;5.32;3.45;;;;;;;6.68;60.03;100769.47;5077486;28;20100;-66
2021/12/25 11:01:10;;;;;;;4.53;2.92;;;;;;;6.66;59.91;100767.00;5071659;28;20455;-67
2021/12/25 11:03:39;;;;;;;5.35;3.40;;;;;;;6.68;59.83;100769.47;5071172;28;20513;-67
2021/12/25 11:06:11;;;;;;;5.35;3.38;;;;;;;6.59;59.23;100765.31;5069051;28;20044;-67
2021/12/25 11:08:38;;;;;;;5.72;3.45;;;;;;;6.60;59.43;100766.97;5067949;28;20040;-68
2021/12/25 11:11:10;;;;;;;4.57;3.10;;;;;;;6.61;59.72;100769.44;5068673;28;20072;-67
2021/12/25 11:13:43;;;;;;;5.15;3.30;;;;;;;6.60;59.21;100781.16;5065695;28;20128;-67
2021/12/25 11:16:20;;;;;;;4.85;3.20;;;;;;;6.57;59.37;100780.72;5074159;28;20052;-67
2021/12/25 11:19:04;;;;;;;5.60;3.15;;;;;;;6.53;59.01;100783.78;5076426;28;20064;-66
2021/12/25 11:21:35;;;;;;;3.88;2.92;;;;;;;6.58;59.23;100795.72;5071321;28;20049;-67
2021/12/25 11:24:09;;;;;;;4.80;3.42;;;;;;;6.54;59.85;100800.63;5080595;28;20075;-67
2021/12/25 11:26:38;;;;;;;6.55;3.33;;;;;;;6.49;59.20;100803.88;5064808;28;20057;-67
2021/12/25 11:29:09;;;;;;;4.93;3.22;;;;;;;6.45;59.63;100796.47;5068769;28;20080;-67
2021/12/25 11:31:38;;;;;;;3.75;2.83;;;;;;;6.47;58.46;100799.75;5065369;28;20215;-66
2021/12/25 11:34:07;;;;;;;4.80;2.78;;;;;;;6.44;58.68;100789.47;5069696;28;20040;-66
2021/12/25 11:36:38;;;;;;;4.13;2.92;;;;;;;6.39;58.80;100776.72;5071001;28;20060;-68
2021/12/25 11:39:07;;;;;;;5.72;3.67;;;;;;;6.44;59.46;100778.78;5068738;28;20080;-70
2021/12/25 11:41:37;;;;;;;3.42;2.33;;;;;;;6.42;59.04;100781.66;5074573;28;20118;-70
2021/12/25 11:44:08;;;;;;;4.07;2.58;;;;;;;6.45;59.22;100775.09;5077822;28;20112;-70
2021/12/25 11:46:41;;;;;;;5.50;3.85;;;;;;;6.40;59.00;100773.03;5066299;28;20060;-70
2021/12/25 11:49:11;;;;;;;7.03;3.03;;;;;;;6.41;58.62;100774.69;5064212;28;20049;-65
2021/12/25 11:51:42;;;;;;;4.25;2.53;;;;;;;6.43;58.86;100775.31;5064747;28;20049;-70
2021/12/25 11:54:54;;;;;;;7.20;2.60;;;;;;;6.51;58.73;100779.66;5064303;28;20071;-71
2021/12/25 11:57:45;;;;;;;5.15;2.80;;;;;;;6.46;58.57;100779.44;5063998;28;20107;-70
2021/12/25 12:00:13;;;;;;;7.80;3.17;;;;;;;6.46;58.72;100793.59;5062038;28;20049;-68
2021/12/25 12:02:44;;;;;;;6.25;2.83;;;;;;;6.48;58.55;100778.22;5064659;28;20084;-69
2021/12/25 12:05:21;;;;;;;7.07;2.67;;;;;;;6.59;57.87;100771.50;4362238;28;10000702;-73
2021/12/25 12:08:05;;;;;;;9.20;2.75;;;;;;;6.72;57.79;100776.91;5052681;28;20048;-71
2021/12/25 12:11:00;;;;;;;9.05;2.60;;;;;;;6.93;57.84;100783.97;5053882;28;20391;-72
2021/12/25 12:13:30;;;;;;;6.65;2.78;;;;;;;7.06;56.72;100777.81;5056046;28;20053;-71
2021/12/25 12:16:01;;;;;;;3.83;2.65;;;;;;;7.24;57.28;100783.44;5059677;28;20057;-71
2021/12/25 12:18:40;;;;;;;3.65;2.30;;;;;;;7.44;56.58;100786.16;5056929;28;20105;-71
2021/12/25 12:21:34;;;;;;;3.63;1.98;;;;;;;7.53;55.44;100778.75;5058070;28;20346;-72
2021/12/25 12:24:47;;;;;;;4.80;2.20;;;;;;;7.63;55.12;100772.00;5059922;28;20091;-68
2021/12/25 12:27:34;;;;;;;3.35;1.88;;;;;;;7.75;54.64;100754.31;5058525;28;20095;-71
2021/12/25 12:30:06;;;;;;;4.25;1.92;;;;;;;7.83;54.56;100755.94;5059721;28;20036;-71
2021/12/25 12:32:44;;;;;;;3.15;1.75;;;;;;;7.94;54.46;100744.63;5058801;28;20049;-71
2021/12/25 12:35:32;;;;;;;3.35;1.67;;;;;;;8.04;54.44;100753.06;5056218;28;20057;-70